createdAt,value
2017-10-12T00:01:05.674Z,94736.09
2017-10-12T00:03:33.449Z,94737.54
2017-10-12T00:06:01.112Z,94740.53
2017-10-12T00:08:29.229Z,94739.19
2017-10-12T00:10:56.923Z,94734.36
2017-10-12T00:13:24.629Z,94737.34
2017-10-12T00:15:52.403Z,94734.55
2017-10-12T00:18:20.089Z,94738.31
2017-10-12T00:20:47.850Z,94738.42
2017-10-12T00:23:15.894Z,94734.42
2017-10-12T00:25:43.596Z,94737.89
2017-10-12T00:28:11.675Z,94739.70
2017-10-12T00:30:39.381Z,94738.91
2017-10-12T00:33:07.100Z,94744.69
2017-10-12T00:35:34.873Z,94743.16
2017-10-12T00:38:02.582Z,94745.39
2017-10-12T00:40:30.329Z,94739.72
2017-10-12T00:42:58.056Z,94748.86
2017-10-12T00:45:25.872Z,94749.13
2017-10-12T00:47:53.606Z,94749.65
2017-10-12T00:50:21.313Z,94745.39
2017-10-12T00:52:49.082Z,94746.50
2017-10-12T00:55:16.810Z,94747.34
2017-10-12T00:57:44.500Z,94743.20
2017-10-12T01:00:12.340Z,94740.62
2017-10-12T01:02:41.477Z,94746.28
2017-10-12T01:05:09.280Z,94747.84
2017-10-12T01:07:37.100Z,94745.34
2017-10-12T01:10:04.862Z,94749.77
2017-10-12T01:12:32.635Z,94747.22
2017-10-12T01:15:00.333Z,94743.51
2017-10-12T01:17:28.021Z,94750.72
2017-10-12T01:19:55.852Z,94748.66
2017-10-12T01:22:23.684Z,94735.66
2017-10-12T01:24:51.533Z,94740.70
2017-10-12T01:27:19.311Z,94745.59
2017-10-12T01:29:47.452Z,94746.02
2017-10-12T01:32:15.495Z,94739.31
2017-10-12T01:34:43.217Z,94743.65
2017-10-12T01:37:11.015Z,94748.31
2017-10-12T01:39:38.806Z,94749.78
2017-10-12T01:42:07.204Z,94748.84
2017-10-12T01:44:34.919Z,94746.67
2017-10-12T01:47:02.678Z,94745.27
2017-10-12T01:49:30.420Z,94752.55
2017-10-12T01:51:58.135Z,94745.70
2017-10-12T01:54:25.900Z,94746.09
2017-10-12T01:56:53.722Z,94747.64
2017-10-12T01:59:21.421Z,94738.93
2017-10-12T02:01:49.157Z,94740.91
2017-10-12T02:04:16.955Z,94753.27
2017-10-12T02:06:44.731Z,94752.89
2017-10-12T02:09:12.446Z,94754.34
2017-10-12T02:11:40.282Z,94755.13
2017-10-12T02:14:08.012Z,94756.95
2017-10-12T02:16:35.703Z,94756.64
2017-10-12T02:19:03.510Z,94754.94
2017-10-12T02:21:31.250Z,94750.56
2017-10-12T02:23:59.080Z,94758.30
2017-10-12T02:26:26.916Z,94750.28
2017-10-12T02:28:54.756Z,94749.39
2017-10-12T02:31:22.482Z,94756.11
2017-10-12T02:33:50.359Z,94746.80
2017-10-12T02:36:19.204Z,94754.91
2017-10-12T02:38:46.955Z,94757.49
2017-10-12T02:41:14.718Z,94748.78
2017-10-12T02:43:42.506Z,94748.99
2017-10-12T02:46:10.359Z,94751.39
2017-10-12T02:48:38.055Z,94744.44
2017-10-12T02:51:05.801Z,94750.14
2017-10-12T02:53:33.579Z,94756.70
2017-10-12T02:56:01.274Z,94755.37
2017-10-12T02:58:28.975Z,94751.02
2017-10-12T03:00:57.136Z,94756.20
2017-10-12T03:03:24.868Z,94757.16
2017-10-12T03:05:52.630Z,94767.80
2017-10-12T03:08:20.323Z,94770.64
2017-10-12T03:10:48.063Z,94764.25
2017-10-12T03:13:15.752Z,94776.61
2017-10-12T03:15:43.476Z,94779.94
2017-10-12T03:18:11.205Z,94776.02
2017-10-12T03:20:38.983Z,94777.22
2017-10-12T03:23:06.758Z,94775.25
2017-10-12T03:25:34.502Z,94784.17
2017-10-12T03:28:02.221Z,94776.13
2017-10-12T03:30:29.933Z,94780.41
2017-10-12T03:32:57.621Z,94786.05
2017-10-12T03:35:25.429Z,94789.34
2017-10-12T03:37:53.172Z,94791.87
2017-10-12T03:40:21.156Z,94781.57
2017-10-12T03:42:48.933Z,94800.66
2017-10-12T03:45:16.650Z,94799.05
2017-10-12T03:47:44.391Z,94800.99
2017-10-12T03:50:12.158Z,94796.97
2017-10-12T03:52:39.849Z,94807.81
2017-10-12T03:55:07.594Z,94806.05
2017-10-12T03:57:35.932Z,94805.29
2017-10-12T04:00:03.682Z,94804.91
2017-10-12T04:02:31.418Z,94796.97
2017-10-12T04:04:59.159Z,94801.47
2017-10-12T04:07:26.844Z,94808.03
2017-10-12T04:09:54.638Z,94798.75
2017-10-12T04:12:22.325Z,94806.30
2017-10-12T04:14:50.491Z,94794.97
2017-10-12T04:17:18.827Z,94802.41
2017-10-12T04:19:46.582Z,94808.23
2017-10-12T04:22:14.258Z,94805.88
2017-10-12T04:24:42.017Z,94803.17
2017-10-12T04:27:09.767Z,94804.38
2017-10-12T04:29:37.462Z,94801.66
2017-10-12T04:32:05.170Z,94810.37
2017-10-12T04:34:32.919Z,94813.22
2017-10-12T04:37:00.634Z,94804.69
2017-10-12T04:39:28.442Z,94803.91
2017-10-12T04:41:56.132Z,94807.20
2017-10-12T04:44:23.881Z,94817.09
2017-10-12T04:46:51.647Z,94812.97
2017-10-12T04:49:19.347Z,94814.36
2017-10-12T04:51:47.067Z,94812.98
2017-10-12T04:54:14.801Z,94812.03
2017-10-12T04:56:42.564Z,94823.62
2017-10-12T04:59:10.337Z,94813.52
2017-10-12T05:01:38.096Z,94812.88
2017-10-12T05:04:05.802Z,94813.95
2017-10-12T05:06:33.481Z,94812.61
2017-10-12T05:09:01.350Z,94813.04
2017-10-12T05:11:29.054Z,94820.00
2017-10-12T05:13:56.780Z,94819.75
2017-10-12T05:16:24.524Z,94820.95
2017-10-12T05:18:52.232Z,94831.20
2017-10-12T05:21:20.037Z,94829.91
2017-10-12T05:23:47.778Z,94835.70
2017-10-12T05:26:15.551Z,94836.28
2017-10-12T05:28:43.236Z,94839.58
2017-10-12T05:31:10.928Z,94839.96
2017-10-12T05:33:38.650Z,94841.36
2017-10-12T05:36:06.382Z,94847.89
2017-10-12T05:38:34.191Z,94853.55
2017-10-12T05:41:02.017Z,94854.23
2017-10-12T05:43:29.783Z,94859.67
2017-10-12T05:45:57.548Z,94861.19
2017-10-12T05:48:25.334Z,94857.45
2017-10-12T05:50:53.022Z,94862.44
2017-10-12T05:53:20.726Z,94864.14
2017-10-12T05:55:48.466Z,94863.37
2017-10-12T05:58:16.293Z,94872.69
2017-10-12T06:00:43.960Z,94875.27
2017-10-12T06:03:11.658Z,94874.58
2017-10-12T06:05:39.530Z,94880.10
2017-10-12T06:08:07.256Z,94883.69
2017-10-12T06:10:35.049Z,94881.38
2017-10-12T06:13:02.920Z,94881.55
2017-10-12T06:15:30.695Z,94881.25
2017-10-12T06:17:58.407Z,94883.80
2017-10-12T06:20:26.267Z,94881.80
2017-10-12T06:22:54.168Z,94893.11
2017-10-12T06:25:21.909Z,94892.91
2017-10-12T06:27:49.660Z,94887.97
2017-10-12T06:30:19.515Z,94887.94
2017-10-12T06:32:48.252Z,94890.18
2017-10-12T06:35:15.998Z,94892.36
2017-10-12T06:37:43.786Z,94883.45
2017-10-12T06:40:11.468Z,94889.68
2017-10-12T06:42:39.304Z,94888.08
2017-10-12T06:45:07.138Z,94898.16
2017-10-12T06:47:34.838Z,94897.31
2017-10-12T06:50:02.627Z,94894.17
2017-10-12T06:52:30.430Z,94894.77
2017-10-12T06:54:58.217Z,94904.30
2017-10-12T06:57:26.138Z,94910.77
2017-10-12T06:59:53.912Z,94899.53
2017-10-12T07:02:21.637Z,94906.25
2017-10-12T07:04:49.404Z,94906.47
2017-10-12T07:07:17.078Z,94911.39
2017-10-12T07:09:44.920Z,94910.25
2017-10-12T07:12:12.680Z,94909.47
2017-10-12T07:14:40.439Z,94907.64
2017-10-12T07:17:08.924Z,94914.91
2017-10-12T07:19:36.690Z,94921.20
2017-10-12T07:22:04.450Z,94918.52
2017-10-12T07:24:32.144Z,94916.36
2017-10-12T07:27:00.793Z,94923.72
2017-10-12T07:29:28.515Z,94923.34
2017-10-12T07:31:56.485Z,94923.47
2017-10-12T07:34:24.195Z,94926.07
2017-10-12T07:36:51.884Z,94917.16
2017-10-12T07:39:19.653Z,94923.28
2017-10-12T07:41:47.382Z,94917.42
2017-10-12T07:44:15.249Z,94907.70
2017-10-12T07:46:43.014Z,94911.51
2017-10-12T07:49:10.787Z,94921.09
2017-10-12T07:51:39.178Z,94920.92
2017-10-12T07:54:06.910Z,94921.91
2017-10-12T07:56:34.690Z,94923.34
2017-10-12T07:59:02.419Z,94910.78
2017-10-12T08:01:30.229Z,94913.20
2017-10-12T08:03:57.969Z,94914.12
2017-10-12T08:06:25.821Z,94917.92
2017-10-12T08:08:53.563Z,94921.14
2017-10-12T08:11:21.309Z,94921.36
2017-10-12T08:13:49.168Z,94916.48
2017-10-12T08:16:16.995Z,94918.10
2017-10-12T08:18:44.697Z,94916.86
2017-10-12T08:21:12.413Z,94925.14
2017-10-12T08:23:40.186Z,94909.14
2017-10-12T08:26:07.951Z,94916.16
2017-10-12T08:28:35.679Z,94915.30
2017-10-12T08:31:03.429Z,94911.21
2017-10-12T08:33:31.119Z,94914.14
2017-10-12T08:35:58.806Z,94915.05
2017-10-12T08:38:26.572Z,94915.80
2017-10-12T08:40:54.293Z,94911.48
2017-10-12T08:43:22.000Z,94909.33
2017-10-12T08:45:49.903Z,94903.98
2017-10-12T08:48:17.653Z,94909.50
2017-10-12T08:50:45.382Z,94898.17
2017-10-12T08:53:13.124Z,94902.05
2017-10-12T08:55:40.897Z,94896.64
2017-10-12T08:58:08.623Z,94900.74
2017-10-12T09:00:36.430Z,94895.56
2017-10-12T09:03:04.191Z,94893.56
2017-10-12T09:05:31.880Z,94891.08
2017-10-12T09:07:59.616Z,94886.17
2017-10-12T09:10:27.409Z,94887.09
2017-10-12T09:12:55.094Z,94886.55
2017-10-12T09:15:22.876Z,94889.40
2017-10-12T09:17:50.724Z,94889.14
2017-10-12T09:20:18.468Z,94876.27
2017-10-12T09:22:46.539Z,94876.75
2017-10-12T09:25:14.385Z,94876.99
2017-10-12T09:27:42.127Z,94869.41
2017-10-12T09:30:09.832Z,94867.44
2017-10-12T09:32:37.638Z,94866.31
2017-10-12T09:35:05.503Z,94880.49
2017-10-12T09:37:33.283Z,94864.30
2017-10-12T09:40:01.003Z,94865.76
2017-10-12T09:42:28.894Z,94870.45
2017-10-12T09:44:56.616Z,94868.22
2017-10-12T09:47:24.359Z,94864.69
2017-10-12T09:49:52.163Z,94858.45
2017-10-12T09:52:19.940Z,94858.45
2017-10-12T09:54:47.697Z,94867.11
2017-10-12T09:57:15.550Z,94867.84
2017-10-12T09:59:43.405Z,94859.05
2017-10-12T10:02:11.144Z,94858.91
2017-10-12T10:04:38.820Z,94857.53
2017-10-12T10:07:06.601Z,94849.94
2017-10-12T10:09:34.361Z,94850.52
2017-10-12T10:12:02.084Z,94854.14
2017-10-12T10:14:29.821Z,94845.36
2017-10-12T10:16:57.498Z,94845.27
2017-10-12T10:19:25.198Z,94845.74
2017-10-12T10:21:52.959Z,94845.81
2017-10-12T10:24:20.662Z,94833.34
2017-10-12T10:26:48.538Z,94839.56
2017-10-12T10:29:21.926Z,94844.55
2017-10-12T10:31:49.872Z,94832.59
2017-10-12T10:34:17.576Z,94835.48
2017-10-12T10:36:45.285Z,94834.33
2017-10-12T10:39:13.033Z,94832.22
2017-10-12T10:41:40.795Z,94821.15
2017-10-12T10:44:08.532Z,94821.34
2017-10-12T10:46:36.455Z,94822.98
2017-10-12T10:49:04.200Z,94811.42
2017-10-12T10:51:32.022Z,94811.43
2017-10-12T10:53:59.726Z,94810.13
2017-10-12T10:56:27.555Z,94805.97
2017-10-12T10:58:55.428Z,94801.63
2017-10-12T11:01:23.244Z,94802.55
2017-10-12T11:03:50.942Z,94796.57
2017-10-12T11:06:18.677Z,94799.70
2017-10-12T11:08:46.374Z,94793.99
2017-10-12T11:11:14.144Z,94791.41
2017-10-12T11:13:41.899Z,94787.69
2017-10-12T11:16:09.641Z,94782.39
2017-10-12T11:18:37.363Z,94785.78
2017-10-12T11:21:05.310Z,94784.03
2017-10-12T11:23:33.087Z,94778.56
2017-10-12T11:26:01.029Z,94775.84
2017-10-12T11:28:29.563Z,94763.03
2017-10-12T11:30:58.217Z,94765.02
2017-10-12T11:33:27.905Z,94757.86
2017-10-12T11:35:55.642Z,94765.91
2017-10-12T11:38:24.249Z,94767.78
2017-10-12T11:40:52.035Z,94755.64
2017-10-12T11:43:19.785Z,94751.39
2017-10-12T11:45:47.561Z,94746.73
2017-10-12T11:48:15.376Z,94751.78
2017-10-12T11:50:43.186Z,94749.80
2017-10-12T11:53:11.696Z,94753.25
2017-10-12T11:55:39.535Z,94748.27
2017-10-12T11:58:07.436Z,94753.81
2017-10-12T12:00:36.323Z,94746.91
2017-10-12T12:03:05.261Z,94749.98
2017-10-12T12:05:32.988Z,94743.47
2017-10-12T12:08:00.817Z,94742.22
2017-10-12T12:10:28.688Z,94744.28
2017-10-12T12:12:59.286Z,94741.85
2017-10-12T12:15:27.035Z,94746.19
2017-10-12T12:17:54.840Z,94749.32
2017-10-12T12:20:22.603Z,94740.73
2017-10-12T12:22:51.346Z,94741.56
2017-10-12T12:25:19.195Z,94732.74
2017-10-12T12:27:46.971Z,94733.54
2017-10-12T12:30:14.909Z,94732.70
2017-10-12T12:32:42.663Z,94738.34
2017-10-12T12:35:10.441Z,94747.33
2017-10-12T12:37:38.224Z,94745.31
2017-10-12T12:40:05.978Z,94749.92
2017-10-12T12:42:33.755Z,94751.23
2017-10-12T12:45:01.490Z,94755.19
2017-10-12T12:47:29.421Z,94745.30
2017-10-12T12:49:57.121Z,94746.14
2017-10-12T12:52:24.981Z,94740.13
2017-10-12T12:54:52.725Z,94748.08
2017-10-12T12:57:20.474Z,94760.70
2017-10-12T12:59:48.243Z,94765.44
2017-10-12T13:02:16.266Z,94762.11
2017-10-12T13:04:44.041Z,94781.03
2017-10-12T13:07:12.595Z,94776.88
2017-10-12T13:09:40.368Z,94780.05
2017-10-12T13:12:08.093Z,94785.14
2017-10-12T13:14:35.851Z,94781.25
2017-10-12T13:17:03.595Z,94784.75
2017-10-12T13:19:31.335Z,94768.66
2017-10-12T13:21:59.144Z,94780.42
2017-10-12T13:24:26.849Z,94774.58
2017-10-12T13:26:54.590Z,94774.39
2017-10-12T13:29:22.346Z,94780.27
2017-10-12T13:31:50.094Z,94780.98
2017-10-12T13:34:17.886Z,94780.05
2017-10-12T13:36:45.608Z,94790.17
2017-10-12T13:39:14.267Z,94787.91
2017-10-12T13:41:42.078Z,94789.96
2017-10-12T13:44:10.105Z,94799.14
2017-10-12T13:46:38.178Z,94808.89
2017-10-12T13:49:05.987Z,94796.84
2017-10-12T13:51:33.784Z,94807.04
2017-10-12T13:54:01.593Z,94809.48
2017-10-12T13:56:29.345Z,94808.42
2017-10-12T13:58:57.133Z,94807.89
2017-10-12T14:01:24.990Z,94812.71
2017-10-12T14:03:52.708Z,94805.38
2017-10-12T14:06:20.488Z,94800.06
2017-10-12T14:08:48.281Z,94798.06
2017-10-12T14:11:16.832Z,94802.56
2017-10-12T14:13:45.033Z,94800.66
2017-10-12T14:16:13.674Z,94806.75
2017-10-12T14:18:41.504Z,94814.82
2017-10-12T14:21:09.262Z,94817.58
2017-10-12T14:23:37.194Z,94811.74
2017-10-12T14:26:04.967Z,94817.14
2017-10-12T14:28:33.013Z,94809.22
2017-10-12T14:31:00.875Z,94813.70
2017-10-12T14:33:28.708Z,94812.63
2017-10-12T14:35:56.941Z,94809.19
2017-10-12T14:38:24.695Z,94819.22
2017-10-12T14:40:52.409Z,94820.78
2017-10-12T14:43:20.279Z,94823.47
2017-10-12T14:45:48.461Z,94819.13
2017-10-12T14:48:16.219Z,94821.98
2017-10-12T14:50:43.961Z,94827.39
2017-10-12T14:53:11.697Z,94826.53
2017-10-12T14:55:39.414Z,94829.45
2017-10-12T14:58:07.169Z,94830.23
2017-10-12T15:00:34.883Z,94826.55
2017-10-12T15:03:02.814Z,94828.95
2017-10-12T15:05:30.926Z,94824.59
2017-10-12T15:07:58.740Z,94832.66
2017-10-12T15:10:26.609Z,94830.45
2017-10-12T15:12:55.837Z,94832.15
2017-10-12T15:15:23.600Z,94835.86
2017-10-12T15:17:52.027Z,94830.78
2017-10-12T15:20:19.834Z,94827.56
2017-10-12T15:22:47.763Z,94823.73
2017-10-12T15:25:15.539Z,94826.03
2017-10-12T15:27:43.303Z,94826.86
2017-10-12T15:30:11.167Z,94831.81
2017-10-12T15:32:38.919Z,94833.95
2017-10-12T15:35:06.772Z,94831.72
2017-10-12T15:37:34.499Z,94831.00
2017-10-12T15:40:02.268Z,94841.00
2017-10-12T15:42:30.009Z,94844.27
2017-10-12T15:44:57.777Z,94849.59
2017-10-12T15:47:25.667Z,94854.56
2017-10-12T15:49:53.466Z,94865.05
2017-10-12T15:52:21.230Z,94863.98
2017-10-12T15:54:50.014Z,94871.87
2017-10-12T15:57:17.737Z,94869.31
2017-10-12T15:59:45.498Z,94867.79
2017-10-12T16:02:13.281Z,94868.69
2017-10-12T16:04:41.010Z,94873.41
2017-10-12T16:07:08.785Z,94886.83
2017-10-12T16:09:36.600Z,94887.06
2017-10-12T16:12:04.341Z,94890.94
2017-10-12T16:14:32.174Z,94899.46
2017-10-12T16:16:59.899Z,94902.57
2017-10-12T16:19:27.595Z,94898.07
2017-10-12T16:21:55.436Z,94908.30
2017-10-12T16:24:23.420Z,94906.66
2017-10-12T16:26:51.215Z,94911.23
2017-10-12T16:29:19.123Z,94904.36
2017-10-12T16:31:46.839Z,94908.64
2017-10-12T16:34:14.616Z,94904.59
2017-10-12T16:36:42.374Z,94918.80
2017-10-12T16:39:10.109Z,94919.48
2017-10-12T16:41:45.496Z,94924.11
2017-10-12T16:44:13.367Z,94926.20
2017-10-12T16:46:41.151Z,94930.71
2017-10-12T16:49:09.014Z,94935.50
2017-10-12T16:51:36.818Z,94936.00
2017-10-12T16:54:05.073Z,94939.08
2017-10-12T16:56:32.849Z,94938.50
2017-10-12T16:59:00.560Z,94933.95
2017-10-12T17:01:28.365Z,94928.04
2017-10-12T17:03:56.113Z,94921.57
2017-10-12T17:06:23.883Z,94924.37
2017-10-12T17:08:51.807Z,94933.23
2017-10-12T17:11:19.692Z,94930.05
2017-10-12T17:13:48.593Z,94932.50
2017-10-12T17:16:16.331Z,94925.52
2017-10-12T17:18:44.084Z,94923.25
2017-10-12T17:21:11.877Z,94926.89
2017-10-12T17:26:07.399Z,94939.56
2017-10-12T17:28:35.171Z,94930.66
2017-10-12T17:31:03.048Z,94931.73
2017-10-12T17:33:30.861Z,94938.70
2017-10-12T17:35:58.659Z,94939.30
2017-10-12T17:38:26.492Z,94952.35
2017-10-12T17:40:54.730Z,94945.67
2017-10-12T17:43:22.607Z,94949.47
2017-10-12T17:45:50.304Z,94941.23
2017-10-12T17:48:18.006Z,94947.37
2017-10-12T17:50:45.754Z,94934.89
2017-10-12T17:53:13.573Z,94946.36
2017-10-12T17:55:41.279Z,94941.67
2017-10-12T17:58:09.043Z,94945.84
2017-10-12T18:00:37.468Z,94960.04
2017-10-12T18:03:05.238Z,94957.27
2017-10-12T18:05:33.411Z,94972.65
2017-10-12T18:08:01.200Z,94976.22
2017-10-12T18:10:29.059Z,94974.53
2017-10-12T18:12:56.759Z,94976.41
2017-10-12T18:15:24.581Z,94970.19
2017-10-12T18:17:52.314Z,94976.88
2017-10-12T18:20:20.082Z,94984.11
2017-10-12T18:22:47.865Z,94986.13
2017-10-12T18:25:15.635Z,94993.56
2017-10-12T18:27:43.514Z,94996.39
2017-10-12T18:30:11.357Z,94989.31
2017-10-12T18:32:39.115Z,94996.14
2017-10-12T18:35:06.924Z,95002.50
2017-10-12T18:37:35.151Z,95001.59
2017-10-12T18:40:02.995Z,95010.88
2017-10-12T18:42:30.933Z,95012.99
2017-10-12T18:44:58.947Z,95019.33
2017-10-12T18:47:26.709Z,95015.67
2017-10-12T18:52:22.359Z,95015.20
2017-10-12T18:54:50.153Z,95018.25
2017-10-12T18:57:17.905Z,95025.50
2017-10-12T18:59:45.688Z,95028.16
2017-10-12T19:02:13.451Z,95028.47
2017-10-12T19:04:41.400Z,95033.56
2017-10-12T19:07:09.188Z,95032.91
2017-10-12T19:09:36.961Z,95042.20
2017-10-12T19:12:04.813Z,95044.34
2017-10-12T19:14:32.613Z,95046.05
2017-10-12T19:17:00.449Z,95045.73
2017-10-12T19:19:28.195Z,95050.69
2017-10-12T19:21:56.247Z,95051.35
2017-10-12T19:24:24.084Z,95052.47
2017-10-12T19:26:51.972Z,95055.72
2017-10-12T19:29:19.727Z,95055.27
2017-10-12T19:31:47.552Z,95057.77
2017-10-12T19:34:15.301Z,95065.75
2017-10-12T19:36:44.279Z,95073.93
2017-10-12T19:39:11.967Z,95082.73
2017-10-12T19:44:13.640Z,95083.28
2017-10-12T19:46:41.656Z,95075.16
2017-10-12T19:49:09.423Z,95083.55
2017-10-12T19:51:37.171Z,95090.16
2017-10-12T19:54:04.943Z,95092.72
2017-10-12T19:56:32.690Z,95090.00
2017-10-12T20:01:29.330Z,95095.20
2017-10-12T20:03:58.553Z,95098.21
2017-10-12T20:06:27.311Z,95095.13
2017-10-12T20:08:55.168Z,95093.80
2017-10-12T20:11:22.878Z,95091.45
2017-10-12T20:14:20.112Z,95101.22
2017-10-12T20:16:18.625Z,95096.98
2017-10-12T20:21:14.086Z,95095.44
2017-10-12T20:23:41.971Z,95104.00
2017-10-12T20:26:09.804Z,95103.06
2017-10-12T20:28:37.686Z,95108.94
2017-10-12T20:31:05.464Z,95107.14
2017-10-12T20:33:33.168Z,95106.53
2017-10-12T20:36:00.981Z,95096.72
2017-10-12T20:38:28.793Z,95097.89
2017-10-12T20:40:56.476Z,95103.36
2017-10-12T20:43:24.229Z,95092.91
2017-10-12T20:45:51.982Z,95105.84
2017-10-12T20:48:19.736Z,95098.05
2017-10-12T20:50:47.511Z,95102.53
2017-10-12T20:53:15.234Z,95108.85
2017-10-12T20:55:43.014Z,95116.31
2017-10-12T20:58:10.864Z,95118.69
2017-10-12T21:00:38.935Z,95111.11
2017-10-12T21:03:06.711Z,95115.89
2017-10-12T21:08:02.407Z,95111.12
2017-10-12T21:10:30.160Z,95123.22
2017-10-12T21:12:57.928Z,95130.45
2017-10-12T21:15:25.712Z,95123.33
2017-10-12T21:17:53.415Z,95122.84
2017-10-12T21:20:21.224Z,95117.53
2017-10-12T21:22:49.017Z,95119.08
2017-10-12T21:25:16.741Z,95123.36
2017-10-12T21:27:44.504Z,95121.85
2017-10-12T21:30:12.294Z,95129.04
2017-10-12T21:35:14.362Z,95115.13
2017-10-12T21:37:43.322Z,95119.48
2017-10-12T21:40:11.349Z,95115.47
2017-10-12T21:42:39.144Z,95120.41
2017-10-12T21:45:06.882Z,95121.15
2017-10-12T21:47:34.591Z,95116.36
2017-10-12T21:50:02.407Z,95116.78
2017-10-12T21:52:30.172Z,95119.06
2017-10-12T21:54:57.924Z,95121.60
2017-10-12T21:57:25.688Z,95118.83
2017-10-12T21:59:53.443Z,95130.71
2017-10-12T22:02:21.392Z,95128.92
2017-10-12T22:04:49.124Z,95125.57
2017-10-12T22:07:16.906Z,95121.45
2017-10-12T22:09:44.721Z,95134.95
2017-10-12T22:12:13.516Z,95125.77
2017-10-12T22:14:41.263Z,95130.84
2017-10-12T22:17:08.966Z,95128.72
2017-10-12T22:19:36.689Z,95125.57
2017-10-12T22:22:04.609Z,95124.41
2017-10-12T22:24:32.354Z,95125.73
2017-10-12T22:27:00.052Z,95126.14
2017-10-12T22:29:27.813Z,95122.90
2017-10-12T22:31:55.567Z,95127.22
2017-10-12T22:34:23.324Z,95121.81
2017-10-12T22:36:51.105Z,95126.96
2017-10-12T22:39:18.813Z,95128.48
2017-10-12T22:41:46.611Z,95128.27
2017-10-12T22:44:14.361Z,95133.82
2017-10-12T22:46:42.095Z,95116.31
2017-10-12T22:49:09.823Z,95123.16
2017-10-12T22:51:37.587Z,95125.69
2017-10-12T22:54:05.354Z,95119.88
2017-10-12T22:56:33.067Z,95127.99
2017-10-12T22:59:00.812Z,95131.19
2017-10-12T23:01:28.552Z,95125.97
2017-10-12T23:03:56.309Z,95131.80
2017-10-12T23:06:24.069Z,95137.00
2017-10-12T23:08:51.834Z,95135.58
2017-10-12T23:11:19.552Z,95137.91
2017-10-12T23:13:47.338Z,95139.23
2017-10-12T23:16:15.206Z,95144.36
2017-10-12T23:18:43.437Z,95138.45
2017-10-12T23:21:11.176Z,95135.56
2017-10-12T23:23:39.242Z,95138.90
2017-10-12T23:26:07.044Z,95138.94
2017-10-12T23:28:34.853Z,95137.12
2017-10-12T23:31:02.590Z,95142.52
2017-10-12T23:33:30.862Z,95140.60
2017-10-12T23:35:58.621Z,95144.92
2017-10-12T23:38:26.328Z,95143.25
2017-10-12T23:40:54.125Z,95143.81
2017-10-12T23:43:22.469Z,95146.91
2017-10-12T23:45:50.154Z,95154.50
2017-10-12T23:48:18.043Z,95145.45
2017-10-12T23:50:45.740Z,95148.55
2017-10-12T23:53:13.462Z,95142.08
2017-10-12T23:55:41.158Z,95147.24
2017-10-12T23:58:09.854Z,95148.66
